sensor_id;sensor_type;location;lat;lon;timestamp;P1;durP1;ratioP1;P2;durP2;ratioP2
70757;SDS011;59316;52.964;7.102;2023-02-03T00:01:12;6.85;;;2.35;;
70757;SDS011;59316;52.964;7.102;2023-02-03T00:06:13;8.32;;;2.03;;
70757;SDS011;59316;52.964;7.102;2023-02-03T00:11:15;6.28;;;1.60;;
70757;SDS011;59316;52.964;7.102;2023-02-03T00:16:17;7.45;;;1.77;;
70757;SDS011;59316;52.964;7.102;2023-02-03T00:21:19;7.93;;;1.88;;
70757;SDS011;59316;52.964;7.102;2023-02-03T00:26:21;7.47;;;1.80;;
70757;SDS011;59316;52.964;7.102;2023-02-03T00:31:23;8.93;;;2.08;;
70757;SDS011;59316;52.964;7.102;2023-02-03T00:36:25;7.25;;;1.67;;
70757;SDS011;59316;52.964;7.102;2023-02-03T00:41:28;7.30;;;1.83;;
70757;SDS011;59316;52.964;7.102;2023-02-03T00:46:30;7.25;;;2.03;;
70757;SDS011;59316;52.964;7.102;2023-02-03T00:51:33;4.03;;;1.40;;
70757;SDS011;59316;52.964;7.102;2023-02-03T00:56:35;6.47;;;1.73;;
70757;SDS011;59316;52.964;7.102;2023-02-03T01:01:36;12.35;;;2.30;;
70757;SDS011;59316;52.964;7.102;2023-02-03T01:06:40;6.65;;;1.42;;
70757;SDS011;59316;52.964;7.102;2023-02-03T01:11:42;4.30;;;1.60;;
70757;SDS011;59316;52.964;7.102;2023-02-03T01:16:43;5.45;;;1.58;;
70757;SDS011;59316;52.964;7.102;2023-02-03T01:21:45;3.58;;;1.10;;
70757;SDS011;59316;52.964;7.102;2023-02-03T01:26:47;6.93;;;1.70;;
70757;SDS011;59316;52.964;7.102;2023-02-03T01:31:49;7.45;;;1.63;;
70757;SDS011;59316;52.964;7.102;2023-02-03T01:36:51;4.20;;;1.30;;
70757;SDS011;59316;52.964;7.102;2023-02-03T01:41:54;5.90;;;2.00;;
70757;SDS011;59316;52.964;7.102;2023-02-03T01:46:55;6.03;;;1.50;;
70757;SDS011;59316;52.964;7.102;2023-02-03T01:51:58;7.68;;;1.90;;
70757;SDS011;59316;52.964;7.102;2023-02-03T01:57:00;9.05;;;1.77;;
70757;SDS011;59316;52.964;7.102;2023-02-03T02:02:03;5.55;;;1.63;;
70757;SDS011;59316;52.964;7.102;2023-02-03T02:07:07;8.88;;;2.20;;
70757;SDS011;59316;52.964;7.102;2023-02-03T02:12:10;11.10;;;1.98;;
70757;SDS011;59316;52.964;7.102;2023-02-03T02:22:32;10.27;;;2.20;;
70757;SDS011;59316;52.964;7.102;2023-02-03T02:38:05;6.60;;;2.00;;
70757;SDS011;59316;52.964;7.102;2023-02-03T02:43:17;13.93;;;2.30;;
70757;SDS011;59316;52.964;7.102;2023-02-03T02:53:32;6.40;;;2.00;;
70757;SDS011;59316;52.964;7.102;2023-02-03T02:58:36;3.50;;;1.35;;
70757;SDS011;59316;52.964;7.102;2023-02-03T03:03:39;7.65;;;1.75;;
70757;SDS011;59316;52.964;7.102;2023-02-03T03:13:47;10.70;;;1.50;;
70757;SDS011;59316;52.964;7.102;2023-02-03T03:19:06;4.93;;;1.60;;
70757;SDS011;59316;52.964;7.102;2023-02-03T03:24:10;6.93;;;1.73;;
70757;SDS011;59316;52.964;7.102;2023-02-03T03:29:16;7.38;;;1.50;;
70757;SDS011;59316;52.964;7.102;2023-02-03T03:34:18;7.68;;;1.83;;
70757;SDS011;59316;52.964;7.102;2023-02-03T03:44:24;5.40;;;1.60;;
70757;SDS011;59316;52.964;7.102;2023-02-03T03:49:27;5.40;;;1.40;;
70757;SDS011;59316;52.964;7.102;2023-02-03T03:54:29;6.77;;;1.50;;
70757;SDS011;59316;52.964;7.102;2023-02-03T03:59:33;7.88;;;1.63;;
70757;SDS011;59316;52.964;7.102;2023-02-03T04:04:36;4.13;;;1.42;;
70757;SDS011;59316;52.964;7.102;2023-02-03T04:09:39;5.53;;;1.60;;
70757;SDS011;59316;52.964;7.102;2023-02-03T04:14:41;7.03;;;1.83;;
70757;SDS011;59316;52.964;7.102;2023-02-03T04:19:43;7.47;;;1.80;;
70757;SDS011;59316;52.964;7.102;2023-02-03T04:24:45;10.02;;;2.30;;
70757;SDS011;59316;52.964;7.102;2023-02-03T04:29:46;8.27;;;1.70;;
70757;SDS011;59316;52.964;7.102;2023-02-03T04:34:48;8.55;;;1.75;;
70757;SDS011;59316;52.964;7.102;2023-02-03T04:39:50;6.32;;;2.25;;
70757;SDS011;59316;52.964;7.102;2023-02-03T04:44:54;8.88;;;1.42;;
70757;SDS011;59316;52.964;7.102;2023-02-03T04:49:56;6.53;;;1.42;;
70757;SDS011;59316;52.964;7.102;2023-02-03T04:54:57;4.78;;;1.30;;
70757;SDS011;59316;52.964;7.102;2023-02-03T04:59:59;7.88;;;1.73;;
70757;SDS011;59316;52.964;7.102;2023-02-03T05:05:01;7.55;;;1.52;;
70757;SDS011;59316;52.964;7.102;2023-02-03T05:10:03;5.47;;;1.50;;
70757;SDS011;59316;52.964;7.102;2023-02-03T05:15:05;6.65;;;1.45;;
70757;SDS011;59316;52.964;7.102;2023-02-03T05:20:07;7.13;;;1.80;;
70757;SDS011;59316;52.964;7.102;2023-02-03T05:25:10;8.55;;;1.52;;
70757;SDS011;59316;52.964;7.102;2023-02-03T05:30:11;11.68;;;2.90;;
70757;SDS011;59316;52.964;7.102;2023-02-03T05:35:13;6.25;;;1.85;;
70757;SDS011;59316;52.964;7.102;2023-02-03T05:40:15;8.23;;;1.52;;
70757;SDS011;59316;52.964;7.102;2023-02-03T05:45:17;9.18;;;2.20;;
70757;SDS011;59316;52.964;7.102;2023-02-03T05:50:19;8.05;;;1.75;;
70757;SDS011;59316;52.964;7.102;2023-02-03T05:55:22;8.25;;;1.90;;
70757;SDS011;59316;52.964;7.102;2023-02-03T06:00:24;5.55;;;2.10;;
70757;SDS011;59316;52.964;7.102;2023-02-03T06:05:27;7.60;;;1.73;;
70757;SDS011;59316;52.964;7.102;2023-02-03T06:10:29;5.63;;;2.33;;
70757;SDS011;59316;52.964;7.102;2023-02-03T06:15:31;12.15;;;2.30;;
70757;SDS011;59316;52.964;7.102;2023-02-03T06:20:33;11.55;;;2.30;;
70757;SDS011;59316;52.964;7.102;2023-02-03T06:25:35;11.25;;;2.33;;
70757;SDS011;59316;52.964;7.102;2023-02-03T06:30:37;6.38;;;1.80;;
70757;SDS011;59316;52.964;7.102;2023-02-03T06:35:38;7.00;;;2.13;;
70757;SDS011;59316;52.964;7.102;2023-02-03T06:40:40;6.53;;;2.17;;
70757;SDS011;59316;52.964;7.102;2023-02-03T06:45:45;10.65;;;3.13;;
70757;SDS011;59316;52.964;7.102;2023-02-03T06:50:47;7.97;;;2.40;;
70757;SDS011;59316;52.964;7.102;2023-02-03T06:55:49;11.10;;;2.50;;
70757;SDS011;59316;52.964;7.102;2023-02-03T07:00:54;7.03;;;2.05;;
70757;SDS011;59316;52.964;7.102;2023-02-03T07:05:56;14.18;;;3.40;;
70757;SDS011;59316;52.964;7.102;2023-02-03T07:10:57;9.18;;;2.40;;
70757;SDS011;59316;52.964;7.102;2023-02-03T07:15:59;8.80;;;2.00;;
70757;SDS011;59316;52.964;7.102;2023-02-03T07:21:03;6.97;;;2.28;;
70757;SDS011;59316;52.964;7.102;2023-02-03T07:26:05;9.55;;;2.92;;
70757;SDS011;59316;52.964;7.102;2023-02-03T07:31:08;8.18;;;2.28;;
70757;SDS011;59316;52.964;7.102;2023-02-03T07:36:10;11.10;;;3.70;;
70757;SDS011;59316;52.964;7.102;2023-02-03T07:41:11;10.30;;;2.30;;
70757;SDS011;59316;52.964;7.102;2023-02-03T07:46:13;7.20;;;2.00;;
70757;SDS011;59316;52.964;7.102;2023-02-03T07:51:15;8.98;;;2.25;;
70757;SDS011;59316;52.964;7.102;2023-02-03T07:56:17;13.25;;;2.33;;
70757;SDS011;59316;52.964;7.102;2023-02-03T08:01:19;13.68;;;2.60;;
70757;SDS011;59316;52.964;7.102;2023-02-03T08:06:21;7.85;;;2.72;;
70757;SDS011;59316;52.964;7.102;2023-02-03T08:11:24;11.00;;;3.13;;
70757;SDS011;59316;52.964;7.102;2023-02-03T08:16:26;13.25;;;3.45;;
70757;SDS011;59316;52.964;7.102;2023-02-03T08:21:28;16.63;;;3.88;;
70757;SDS011;59316;52.964;7.102;2023-02-03T08:26:30;14.50;;;3.60;;
70757;SDS011;59316;52.964;7.102;2023-02-03T08:31:32;12.07;;;3.30;;
70757;SDS011;59316;52.964;7.102;2023-02-03T08:36:34;8.55;;;2.97;;
70757;SDS011;59316;52.964;7.102;2023-02-03T08:41:36;7.53;;;2.42;;
70757;SDS011;59316;52.964;7.102;2023-02-03T08:46:38;17.75;;;3.75;;
70757;SDS011;59316;52.964;7.102;2023-02-03T08:51:40;11.77;;;2.90;;
70757;SDS011;59316;52.964;7.102;2023-02-03T08:56:42;13.85;;;3.28;;
70757;SDS011;59316;52.964;7.102;2023-02-03T09:01:44;15.75;;;2.67;;
70757;SDS011;59316;52.964;7.102;2023-02-03T09:06:46;13.98;;;2.78;;
70757;SDS011;59316;52.964;7.102;2023-02-03T09:11:48;14.93;;;3.30;;
70757;SDS011;59316;52.964;7.102;2023-02-03T09:16:49;16.25;;;3.45;;
70757;SDS011;59316;52.964;7.102;2023-02-03T09:21:51;12.02;;;3.05;;
70757;SDS011;59316;52.964;7.102;2023-02-03T09:26:53;21.80;;;3.53;;
70757;SDS011;59316;52.964;7.102;2023-02-03T09:31:55;20.85;;;3.15;;
70757;SDS011;59316;52.964;7.102;2023-02-03T09:36:57;18.48;;;3.42;;
70757;SDS011;59316;52.964;7.102;2023-02-03T09:47:40;18.45;;;3.00;;
70757;SDS011;59316;52.964;7.102;2023-02-03T09:52:44;14.73;;;3.00;;
70757;SDS011;59316;52.964;7.102;2023-02-03T09:57:48;19.08;;;3.22;;
70757;SDS011;59316;52.964;7.102;2023-02-03T10:08:07;18.52;;;2.95;;
70757;SDS011;59316;52.964;7.102;2023-02-03T10:13:34;22.70;;;3.47;;
70757;SDS011;59316;52.964;7.102;2023-02-03T10:18:47;26.60;;;3.55;;
70757;SDS011;59316;52.964;7.102;2023-02-03T10:23:54;22.50;;;4.22;;
70757;SDS011;59316;52.964;7.102;2023-02-03T10:29:02;23.85;;;3.42;;
70757;SDS011;59316;52.964;7.102;2023-02-03T10:34:12;16.83;;;3.03;;
70757;SDS011;59316;52.964;7.102;2023-02-03T10:44:24;20.63;;;3.28;;
70757;SDS011;59316;52.964;7.102;2023-02-03T10:49:30;23.55;;;3.83;;
70757;SDS011;59316;52.964;7.102;2023-02-03T10:54:33;24.33;;;3.10;;
70757;SDS011;59316;52.964;7.102;2023-02-03T10:59:38;18.10;;;3.17;;
70757;SDS011;59316;52.964;7.102;2023-02-03T11:04:43;15.93;;;3.05;;
70757;SDS011;59316;52.964;7.102;2023-02-03T11:09:45;26.25;;;4.25;;
70757;SDS011;59316;52.964;7.102;2023-02-03T11:14:48;28.08;;;3.60;;
70757;SDS011;59316;52.964;7.102;2023-02-03T11:19:53;27.27;;;3.90;;
70757;SDS011;59316;52.964;7.102;2023-02-03T11:25:01;19.63;;;3.75;;
70757;SDS011;59316;52.964;7.102;2023-02-03T11:30:17;27.08;;;3.97;;
70757;SDS011;59316;52.964;7.102;2023-02-03T11:35:25;28.20;;;4.03;;
70757;SDS011;59316;52.964;7.102;2023-02-03T11:40:30;24.80;;;3.85;;
70757;SDS011;59316;52.964;7.102;2023-02-03T11:51:49;23.05;;;3.50;;
70757;SDS011;59316;52.964;7.102;2023-02-03T12:23:17;27.23;;;3.53;;
70757;SDS011;59316;52.964;7.102;2023-02-03T12:28:42;31.88;;;3.58;;
70757;SDS011;59316;52.964;7.102;2023-02-03T12:33:51;30.75;;;3.40;;
70757;SDS011;59316;52.964;7.102;2023-02-03T12:43:57;19.75;;;2.95;;
70757;SDS011;59316;52.964;7.102;2023-02-03T12:59:30;14.68;;;3.25;;
70757;SDS011;59316;52.964;7.102;2023-02-03T13:09:48;18.75;;;3.17;;
70757;SDS011;59316;52.964;7.102;2023-02-03T13:14:56;15.10;;;2.50;;
70757;SDS011;59316;52.964;7.102;2023-02-03T13:20:04;16.35;;;3.10;;
70757;SDS011;59316;52.964;7.102;2023-02-03T13:25:16;14.55;;;2.97;;
70757;SDS011;59316;52.964;7.102;2023-02-03T13:35:38;13.65;;;2.55;;
70757;SDS011;59316;52.964;7.102;2023-02-03T13:45:49;20.52;;;3.25;;
70757;SDS011;59316;52.964;7.102;2023-02-03T13:51:01;22.55;;;3.13;;
70757;SDS011;59316;52.964;7.102;2023-02-03T13:56:05;16.80;;;3.30;;
70757;SDS011;59316;52.964;7.102;2023-02-03T14:16:39;20.48;;;2.85;;
70757;SDS011;59316;52.964;7.102;2023-02-03T14:26:50;24.55;;;3.47;;
70757;SDS011;59316;52.964;7.102;2023-02-03T14:32:00;26.70;;;4.47;;
70757;SDS011;59316;52.964;7.102;2023-02-03T14:42:18;20.25;;;3.20;;
70757;SDS011;59316;52.964;7.102;2023-02-03T15:03:25;20.05;;;3.70;;
70757;SDS011;59316;52.964;7.102;2023-02-03T15:08:46;17.43;;;2.70;;
70757;SDS011;59316;52.964;7.102;2023-02-03T15:13:48;18.02;;;2.28;;
70757;SDS011;59316;52.964;7.102;2023-02-03T15:18:54;21.98;;;3.70;;
70757;SDS011;59316;52.964;7.102;2023-02-03T15:23:56;14.68;;;2.72;;
70757;SDS011;59316;52.964;7.102;2023-02-03T15:28:59;17.40;;;2.75;;
70757;SDS011;59316;52.964;7.102;2023-02-03T15:34:15;15.95;;;2.33;;
70757;SDS011;59316;52.964;7.102;2023-02-03T15:39:36;22.23;;;3.05;;
70757;SDS011;59316;52.964;7.102;2023-02-03T15:44:44;22.25;;;3.10;;
70757;SDS011;59316;52.964;7.102;2023-02-03T15:49:48;15.35;;;2.60;;
70757;SDS011;59316;52.964;7.102;2023-02-03T15:54:53;19.33;;;2.75;;
70757;SDS011;59316;52.964;7.102;2023-02-03T15:59:59;20.38;;;2.83;;
70757;SDS011;59316;52.964;7.102;2023-02-03T16:05:03;19.10;;;3.30;;
70757;SDS011;59316;52.964;7.102;2023-02-03T16:10:21;16.42;;;2.38;;
70757;SDS011;59316;52.964;7.102;2023-02-03T16:15:25;18.25;;;2.50;;
70757;SDS011;59316;52.964;7.102;2023-02-03T16:20:27;19.10;;;2.43;;
70757;SDS011;59316;52.964;7.102;2023-02-03T16:25:31;16.77;;;2.83;;
70757;SDS011;59316;52.964;7.102;2023-02-03T16:35:35;17.40;;;2.70;;
70757;SDS011;59316;52.964;7.102;2023-02-03T16:40:37;17.05;;;2.95;;
70757;SDS011;59316;52.964;7.102;2023-02-03T16:45:39;15.95;;;2.80;;
70757;SDS011;59316;52.964;7.102;2023-02-03T16:50:41;20.98;;;2.75;;
70757;SDS011;59316;52.964;7.102;2023-02-03T16:55:43;24.80;;;3.95;;
70757;SDS011;59316;52.964;7.102;2023-02-03T17:00:46;19.52;;;2.78;;
70757;SDS011;59316;52.964;7.102;2023-02-03T17:05:49;20.13;;;3.47;;
70757;SDS011;59316;52.964;7.102;2023-02-03T17:10:51;21.40;;;3.37;;
70757;SDS011;59316;52.964;7.102;2023-02-03T17:15:53;22.20;;;3.17;;
70757;SDS011;59316;52.964;7.102;2023-02-03T17:20:59;27.77;;;3.22;;
70757;SDS011;59316;52.964;7.102;2023-02-03T17:26:05;25.50;;;5.03;;
70757;SDS011;59316;52.964;7.102;2023-02-03T17:31:09;13.32;;;3.15;;
70757;SDS011;59316;52.964;7.102;2023-02-03T17:36:14;23.73;;;3.78;;
70757;SDS011;59316;52.964;7.102;2023-02-03T17:46:35;19.88;;;2.70;;
70757;SDS011;59316;52.964;7.102;2023-02-03T17:51:55;24.55;;;2.67;;
70757;SDS011;59316;52.964;7.102;2023-02-03T17:57:14;19.33;;;2.63;;
70757;SDS011;59316;52.964;7.102;2023-02-03T18:02:16;13.93;;;2.40;;
70757;SDS011;59316;52.964;7.102;2023-02-03T18:07:18;24.08;;;3.53;;
70757;SDS011;59316;52.964;7.102;2023-02-03T18:12:20;19.88;;;3.08;;
70757;SDS011;59316;52.964;7.102;2023-02-03T18:17:22;18.20;;;2.78;;
70757;SDS011;59316;52.964;7.102;2023-02-03T18:22:24;19.45;;;2.85;;
70757;SDS011;59316;52.964;7.102;2023-02-03T18:27:26;19.73;;;3.35;;
70757;SDS011;59316;52.964;7.102;2023-02-03T18:32:28;17.52;;;3.25;;
70757;SDS011;59316;52.964;7.102;2023-02-03T18:37:30;22.35;;;3.60;;
70757;SDS011;59316;52.964;7.102;2023-02-03T18:42:32;16.02;;;2.05;;
70757;SDS011;59316;52.964;7.102;2023-02-03T18:47:34;13.68;;;2.60;;
70757;SDS011;59316;52.964;7.102;2023-02-03T18:52:36;20.63;;;3.50;;
70757;SDS011;59316;52.964;7.102;2023-02-03T18:57:38;23.83;;;2.97;;
70757;SDS011;59316;52.964;7.102;2023-02-03T19:02:40;21.13;;;3.70;;
70757;SDS011;59316;52.964;7.102;2023-02-03T19:07:42;26.58;;;4.25;;
70757;SDS011;59316;52.964;7.102;2023-02-03T19:12:44;27.48;;;3.30;;
70757;SDS011;59316;52.964;7.102;2023-02-03T19:17:46;24.85;;;3.90;;
70757;SDS011;59316;52.964;7.102;2023-02-03T19:22:48;26.33;;;3.50;;
70757;SDS011;59316;52.964;7.102;2023-02-03T19:27:50;22.13;;;3.17;;
70757;SDS011;59316;52.964;7.102;2023-02-03T19:32:52;23.45;;;3.00;;
70757;SDS011;59316;52.964;7.102;2023-02-03T19:37:54;19.58;;;2.95;;
70757;SDS011;59316;52.964;7.102;2023-02-03T19:42:56;22.73;;;3.08;;
70757;SDS011;59316;52.964;7.102;2023-02-03T19:47:58;30.05;;;4.68;;
70757;SDS011;59316;52.964;7.102;2023-02-03T19:53:00;22.63;;;4.15;;
70757;SDS011;59316;52.964;7.102;2023-02-03T19:58:02;24.80;;;3.03;;
70757;SDS011;59316;52.964;7.102;2023-02-03T20:03:04;23.70;;;3.47;;
70757;SDS011;59316;52.964;7.102;2023-02-03T20:08:06;24.98;;;3.63;;
70757;SDS011;59316;52.964;7.102;2023-02-03T20:13:09;26.38;;;4.57;;
70757;SDS011;59316;52.964;7.102;2023-02-03T20:18:11;33.43;;;4.20;;
70757;SDS011;59316;52.964;7.102;2023-02-03T20:23:13;19.88;;;3.40;;
70757;SDS011;59316;52.964;7.102;2023-02-03T20:28:15;25.58;;;3.67;;
70757;SDS011;59316;52.964;7.102;2023-02-03T20:33:18;21.50;;;3.28;;
70757;SDS011;59316;52.964;7.102;2023-02-03T20:38:20;42.57;;;4.00;;
70757;SDS011;59316;52.964;7.102;2023-02-03T20:43:23;25.05;;;3.83;;
70757;SDS011;59316;52.964;7.102;2023-02-03T20:48:25;35.90;;;4.15;;
70757;SDS011;59316;52.964;7.102;2023-02-03T20:53:27;33.33;;;4.35;;
70757;SDS011;59316;52.964;7.102;2023-02-03T20:58:30;23.83;;;3.30;;
70757;SDS011;59316;52.964;7.102;2023-02-03T21:03:34;30.30;;;4.53;;
70757;SDS011;59316;52.964;7.102;2023-02-03T21:08:36;22.02;;;4.20;;
70757;SDS011;59316;52.964;7.102;2023-02-03T21:13:38;20.65;;;3.85;;
70757;SDS011;59316;52.964;7.102;2023-02-03T21:18:47;25.90;;;3.10;;
70757;SDS011;59316;52.964;7.102;2023-02-03T21:23:50;30.17;;;4.32;;
70757;SDS011;59316;52.964;7.102;2023-02-03T21:28:53;31.45;;;3.97;;
70757;SDS011;59316;52.964;7.102;2023-02-03T21:33:57;31.40;;;3.90;;
70757;SDS011;59316;52.964;7.102;2023-02-03T21:38:59;32.78;;;3.95;;
70757;SDS011;59316;52.964;7.102;2023-02-03T21:44:01;20.10;;;2.95;;
70757;SDS011;59316;52.964;7.102;2023-02-03T21:49:05;33.10;;;4.30;;
70757;SDS011;59316;52.964;7.102;2023-02-03T21:59:20;27.92;;;3.20;;
70757;SDS011;59316;52.964;7.102;2023-02-03T22:04:24;29.73;;;3.17;;
70757;SDS011;59316;52.964;7.102;2023-02-03T22:09:26;30.58;;;4.75;;
70757;SDS011;59316;52.964;7.102;2023-02-03T22:14:28;32.08;;;4.10;;
70757;SDS011;59316;52.964;7.102;2023-02-03T22:19:30;25.02;;;3.50;;
70757;SDS011;59316;52.964;7.102;2023-02-03T22:24:32;28.42;;;4.88;;
70757;SDS011;59316;52.964;7.102;2023-02-03T22:29:34;29.17;;;3.70;;
70757;SDS011;59316;52.964;7.102;2023-02-03T22:34:36;21.38;;;3.10;;
70757;SDS011;59316;52.964;7.102;2023-02-03T22:39:37;26.98;;;3.78;;
70757;SDS011;59316;52.964;7.102;2023-02-03T22:44:39;28.52;;;4.07;;
70757;SDS011;59316;52.964;7.102;2023-02-03T22:49:41;26.70;;;3.10;;
70757;SDS011;59316;52.964;7.102;2023-02-03T22:54:43;28.70;;;3.72;;
70757;SDS011;59316;52.964;7.102;2023-02-03T22:59:45;36.75;;;4.00;;
70757;SDS011;59316;52.964;7.102;2023-02-03T23:04:47;30.63;;;5.07;;
70757;SDS011;59316;52.964;7.102;2023-02-03T23:09:49;26.38;;;3.25;;
70757;SDS011;59316;52.964;7.102;2023-02-03T23:14:51;22.02;;;4.18;;
70757;SDS011;59316;52.964;7.102;2023-02-03T23:19:53;30.65;;;3.83;;
70757;SDS011;59316;52.964;7.102;2023-02-03T23:24:55;31.08;;;3.90;;
70757;SDS011;59316;52.964;7.102;2023-02-03T23:29:57;28.55;;;3.55;;
70757;SDS011;59316;52.964;7.102;2023-02-03T23:34:59;29.08;;;4.22;;
70757;SDS011;59316;52.964;7.102;2023-02-03T23:40:02;32.20;;;3.78;;
70757;SDS011;59316;52.964;7.102;2023-02-03T23:45:05;29.42;;;4.30;;
70757;SDS011;59316;52.964;7.102;2023-02-03T23:50:08;28.52;;;4.13;;
70757;SDS011;59316;52.964;7.102;2023-02-03T23:55:11;24.27;;;4.30;;
